createdAt,value
2019-05-29T00:00:37.927Z,0.00
2019-05-29T00:01:37.925Z,0.00
2019-05-29T00:02:37.947Z,0.00
2019-05-29T00:03:37.968Z,0.00
2019-05-29T00:04:37.980Z,0.00
2019-05-29T00:05:37.994Z,0.00
2019-05-29T00:06:38.012Z,0.00
2019-05-29T00:07:38.029Z,0.00
2019-05-29T00:08:38.049Z,0.00
2019-05-29T00:09:38.066Z,0.00
2019-05-29T00:10:38.079Z,0.00
2019-05-29T00:11:38.100Z,0.00
2019-05-29T00:12:38.117Z,0.00
2019-05-29T00:13:38.133Z,0.00
2019-05-29T00:14:38.148Z,0.00
2019-05-29T00:15:38.169Z,0.00
2019-05-29T00:16:38.186Z,0.00
2019-05-29T00:17:38.203Z,0.00
2019-05-29T00:18:38.221Z,0.00
2019-05-29T00:19:38.239Z,0.00
2019-05-29T00:20:38.255Z,0.00
2019-05-29T00:21:38.271Z,0.00
2019-05-29T00:22:38.289Z,0.00
2019-05-29T00:23:38.305Z,0.00
2019-05-29T00:24:38.324Z,0.00
2019-05-29T00:25:38.340Z,0.00
2019-05-29T00:26:38.359Z,0.00
2019-05-29T00:27:38.374Z,0.00
2019-05-29T00:28:38.394Z,0.00
2019-05-29T00:29:38.412Z,0.00
2019-05-29T00:30:38.427Z,0.00
2019-05-29T00:31:38.444Z,0.00
2019-05-29T00:32:38.642Z,0.00
2019-05-29T00:33:38.477Z,0.00
2019-05-29T00:34:38.496Z,0.00
2019-05-29T00:35:38.514Z,0.00
2019-05-29T00:36:38.531Z,0.00
2019-05-29T00:37:38.547Z,0.00
2019-05-29T00:38:38.564Z,0.00
2019-05-29T00:39:38.589Z,0.00
2019-05-29T00:40:38.599Z,0.00
2019-05-29T00:41:38.615Z,0.00
2019-05-29T00:42:38.635Z,0.00
2019-05-29T00:43:38.650Z,0.00
2019-05-29T00:44:38.670Z,0.00
2019-05-29T00:45:38.684Z,0.00
2019-05-29T00:46:38.701Z,0.00
2019-05-29T00:47:38.722Z,0.00
2019-05-29T00:48:38.737Z,0.00
2019-05-29T00:49:38.753Z,0.00
2019-05-29T00:50:38.770Z,0.00
2019-05-29T00:51:38.790Z,0.00
2019-05-29T00:52:38.810Z,0.00
2019-05-29T00:53:38.821Z,0.00
2019-05-29T00:54:38.840Z,0.00
2019-05-29T00:55:38.857Z,0.00
2019-05-29T00:56:38.873Z,0.00
2019-05-29T00:57:38.888Z,0.00
2019-05-29T00:58:41.396Z,0.00
2019-05-29T00:59:38.925Z,0.00
2019-05-29T01:00:38.944Z,0.00
2019-05-29T01:01:38.977Z,0.00
2019-05-29T01:02:38.975Z,0.00
2019-05-29T01:03:38.994Z,0.00
2019-05-29T01:04:39.010Z,0.00
2019-05-29T01:05:39.027Z,0.00
2019-05-29T01:06:39.042Z,0.00
2019-05-29T01:07:39.059Z,0.00
2019-05-29T01:08:39.079Z,0.00
2019-05-29T01:09:39.094Z,0.00
2019-05-29T01:10:39.112Z,0.00
2019-05-29T01:11:39.129Z,0.00
2019-05-29T01:12:39.152Z,0.00
2019-05-29T01:13:39.164Z,0.00
2019-05-29T01:14:49.790Z,0.00
2019-05-29T01:15:39.196Z,0.00
2019-05-29T01:16:39.214Z,0.00
2019-05-29T01:17:39.230Z,0.00
2019-05-29T01:18:39.248Z,0.00
2019-05-29T01:19:39.270Z,0.00
2019-05-29T01:20:39.283Z,0.00
2019-05-29T01:21:39.299Z,0.00
2019-05-29T01:22:39.318Z,0.00
2019-05-29T01:23:39.335Z,0.00
2019-05-29T01:24:39.355Z,0.00
2019-05-29T01:25:39.369Z,0.00
2019-05-29T01:26:39.395Z,0.00
2019-05-29T01:27:39.402Z,0.00
2019-05-29T01:28:39.419Z,0.00
2019-05-29T01:29:39.437Z,0.00
2019-05-29T01:30:39.453Z,0.00
2019-05-29T01:31:39.474Z,0.00
2019-05-29T01:32:39.563Z,0.00
2019-05-29T01:33:39.584Z,0.00
2019-05-29T01:34:39.563Z,0.00
2019-05-29T01:35:39.570Z,0.00
2019-05-29T01:36:39.639Z,0.00
2019-05-29T01:37:39.623Z,0.00
2019-05-29T01:38:39.640Z,0.00
2019-05-29T01:39:39.638Z,0.00
2019-05-29T01:40:39.626Z,0.00
2019-05-29T01:41:39.736Z,0.00
2019-05-29T01:42:39.659Z,0.00
2019-05-29T01:43:39.674Z,0.00
2019-05-29T01:44:39.693Z,0.00
2019-05-29T01:45:39.709Z,0.00
2019-05-29T01:46:39.727Z,0.00
2019-05-29T01:47:39.744Z,0.00
2019-05-29T01:48:39.759Z,0.00
2019-05-29T01:49:39.776Z,0.00
2019-05-29T01:50:39.801Z,0.00
2019-05-29T01:51:39.813Z,0.00
2019-05-29T01:52:39.829Z,0.00
2019-05-29T01:53:39.847Z,0.00
2019-05-29T01:54:39.867Z,0.00
2019-05-29T01:55:39.880Z,0.00
2019-05-29T01:56:39.895Z,0.00
2019-05-29T01:57:39.918Z,0.00
2019-05-29T01:58:39.939Z,0.00
2019-05-29T01:59:39.950Z,0.00
2019-05-29T02:00:39.965Z,0.00
2019-05-29T02:01:39.979Z,0.00
2019-05-29T02:02:40.007Z,0.00
2019-05-29T02:03:40.016Z,0.00
2019-05-29T02:04:40.034Z,0.00
2019-05-29T02:05:40.051Z,0.00
2019-05-29T02:06:40.067Z,0.00
2019-05-29T02:07:40.088Z,0.00
2019-05-29T02:08:40.101Z,0.00
2019-05-29T02:09:40.118Z,0.00
2019-05-29T02:10:40.136Z,0.00
2019-05-29T02:11:40.152Z,4.00
2019-05-29T02:12:40.169Z,4.00
2019-05-29T02:13:40.186Z,4.00
2019-05-29T02:14:40.203Z,4.00
2019-05-29T02:15:40.219Z,0.00
2019-05-29T02:16:40.238Z,4.00
2019-05-29T02:17:40.253Z,4.00
2019-05-29T02:18:40.271Z,4.00
2019-05-29T02:19:40.295Z,4.00
2019-05-29T02:20:40.305Z,4.00
2019-05-29T02:21:40.321Z,4.00
2019-05-29T02:22:40.338Z,8.00
2019-05-29T02:23:40.356Z,4.00
2019-05-29T02:24:40.371Z,8.00
2019-05-29T02:25:40.389Z,8.00
2019-05-29T02:26:40.420Z,8.00
2019-05-29T02:27:40.424Z,12.00
2019-05-29T02:28:40.441Z,12.00
2019-05-29T02:29:40.459Z,12.00
2019-05-29T02:30:40.493Z,12.00
2019-05-29T02:31:40.494Z,16.00
2019-05-29T02:32:40.512Z,20.00
2019-05-29T02:33:40.536Z,20.00
2019-05-29T02:34:40.545Z,20.00
2019-05-29T02:35:40.561Z,24.00
2019-05-29T02:36:40.577Z,28.00
2019-05-29T02:37:40.594Z,32.00
2019-05-29T02:38:40.610Z,32.00
2019-05-29T02:39:40.630Z,40.00
2019-05-29T02:40:40.646Z,40.00
2019-05-29T02:41:40.659Z,48.00
2019-05-29T02:42:40.681Z,52.00
2019-05-29T02:43:40.698Z,56.00
2019-05-29T02:44:40.721Z,64.00
2019-05-29T02:45:53.839Z,68.00
2019-05-29T02:46:40.751Z,80.00
2019-05-29T02:47:40.768Z,92.00
2019-05-29T02:48:40.784Z,100.00
2019-05-29T02:49:40.800Z,112.00
2019-05-29T02:50:40.819Z,116.00
2019-05-29T02:51:40.836Z,120.00
2019-05-29T02:52:40.857Z,124.00
2019-05-29T02:53:40.867Z,128.00
2019-05-29T02:54:40.887Z,136.00
2019-05-29T02:55:40.913Z,148.00
2019-05-29T02:56:42.707Z,156.00
2019-05-29T02:57:40.938Z,168.00
2019-05-29T02:58:40.957Z,172.00
2019-05-29T02:59:40.973Z,180.00
2019-05-29T03:00:40.989Z,184.00
2019-05-29T03:01:41.010Z,196.00
2019-05-29T03:02:41.024Z,208.00
2019-05-29T03:03:41.045Z,220.00
2019-05-29T03:04:41.068Z,236.00
2019-05-29T03:05:41.075Z,248.00
2019-05-29T03:06:41.091Z,260.00
2019-05-29T03:07:41.108Z,268.00
2019-05-29T03:08:41.127Z,280.00
2019-05-29T03:09:41.143Z,292.00
2019-05-29T03:10:41.162Z,304.00
2019-05-29T03:11:41.177Z,320.00
2019-05-29T03:12:41.196Z,340.00
2019-05-29T03:13:41.217Z,360.00
2019-05-29T03:14:41.229Z,384.00
2019-05-29T03:15:41.248Z,404.00
2019-05-29T03:16:41.267Z,436.00
2019-05-29T03:17:41.280Z,468.00
2019-05-29T03:18:41.310Z,512.00
2019-05-29T03:19:41.316Z,552.00
2019-05-29T03:20:41.335Z,600.00
2019-05-29T03:21:41.361Z,644.00
2019-05-29T03:22:41.436Z,708.00
2019-05-29T03:23:41.436Z,768.00
2019-05-29T03:24:41.441Z,812.00
2019-05-29T03:25:41.448Z,848.00
2019-05-29T03:26:41.500Z,884.00
2019-05-29T03:27:41.512Z,940.00
2019-05-29T03:28:41.499Z,1008.00
2019-05-29T03:29:41.506Z,1072.00
2019-05-29T03:30:45.708Z,1140.00
2019-05-29T03:31:47.208Z,1212.00
2019-05-29T03:32:47.092Z,1272.00
2019-05-29T03:33:48.653Z,1324.00
2019-05-29T03:34:46.483Z,1368.00
2019-05-29T03:35:47.558Z,1400.00
2019-05-29T03:36:47.277Z,1436.00
2019-05-29T03:37:41.643Z,1484.00
2019-05-29T03:38:41.647Z,1548.00
2019-05-29T03:39:41.680Z,1620.00
2019-05-29T03:40:41.681Z,1696.00
2019-05-29T03:41:41.716Z,1776.00
2019-05-29T03:42:41.719Z,1856.00
2019-05-29T03:43:41.731Z,1928.00
2019-05-29T03:44:41.761Z,1976.00
2019-05-29T03:45:41.772Z,2000.00
2019-05-29T03:46:45.685Z,2000.00
2019-05-29T03:47:41.803Z,1992.00
2019-05-29T03:48:41.821Z,1972.00
2019-05-29T03:49:41.844Z,1940.00
2019-05-29T03:50:41.862Z,1896.00
2019-05-29T03:51:41.873Z,1836.00
2019-05-29T03:52:41.892Z,1748.00
2019-05-29T03:53:41.908Z,1680.00
2019-05-29T03:54:41.925Z,1640.00
2019-05-29T03:55:41.943Z,1616.00
2019-05-29T03:56:41.960Z,1580.00
2019-05-29T03:57:41.977Z,1540.00
2019-05-29T03:58:41.996Z,1508.00
2019-05-29T03:59:42.012Z,1496.00
2019-05-29T04:00:46.277Z,1500.00
2019-05-29T04:01:42.047Z,1516.00
2019-05-29T04:02:42.083Z,1532.00
2019-05-29T04:03:42.082Z,1548.00
2019-05-29T04:04:42.100Z,1564.00
2019-05-29T04:05:42.116Z,1572.00
2019-05-29T04:06:42.137Z,1588.00
2019-05-29T04:07:42.152Z,1608.00
2019-05-29T04:08:42.172Z,1644.00
2019-05-29T04:09:42.187Z,1688.00
2019-05-29T04:10:42.206Z,1732.00
2019-05-29T04:11:42.225Z,1792.00
2019-05-29T04:12:42.244Z,1868.00
2019-05-29T04:13:42.255Z,1976.00
2019-05-29T04:14:42.273Z,2136.00
2019-05-29T04:15:42.292Z,2352.00
2019-05-29T04:16:58.363Z,2588.00
2019-05-29T04:17:42.327Z,2792.00
2019-05-29T04:18:42.351Z,2964.00
2019-05-29T04:19:42.361Z,3160.00
2019-05-29T04:20:42.379Z,3408.00
2019-05-29T04:21:42.411Z,3708.00
2019-05-29T04:22:42.417Z,4000.00
2019-05-29T04:23:42.434Z,4264.00
2019-05-29T04:24:42.447Z,4468.00
2019-05-29T04:25:43.162Z,4564.00
2019-05-29T04:26:42.497Z,4568.00
2019-05-29T04:27:42.499Z,4520.00
2019-05-29T04:28:42.529Z,4468.00
2019-05-29T04:29:42.533Z,4460.00
2019-05-29T04:30:42.559Z,4556.00
2019-05-29T04:31:42.572Z,4756.00
2019-05-29T04:32:42.594Z,4968.00
2019-05-29T04:33:42.605Z,5128.00
2019-05-29T04:34:42.624Z,5260.00
2019-05-29T04:35:42.643Z,5412.00
2019-05-29T04:36:42.655Z,5564.00
2019-05-29T04:37:42.683Z,5736.00
2019-05-29T04:38:42.698Z,5872.00
2019-05-29T04:39:42.711Z,6032.00
2019-05-29T04:40:42.731Z,6272.00
2019-05-29T04:41:42.744Z,6536.00
2019-05-29T04:42:42.761Z,6824.00
2019-05-29T04:43:42.780Z,7096.00
2019-05-29T04:44:42.804Z,7304.00
2019-05-29T04:45:42.816Z,7528.00
2019-05-29T04:46:42.837Z,7744.00
2019-05-29T04:47:42.851Z,7944.00
2019-05-29T04:48:42.871Z,8144.00
2019-05-29T04:49:42.890Z,8384.00
2019-05-29T04:50:42.908Z,8596.00
2019-05-29T04:51:42.924Z,8716.00
2019-05-29T04:52:42.943Z,8792.00
2019-05-29T04:53:42.961Z,8820.00
2019-05-29T04:54:42.978Z,8908.00
2019-05-29T04:55:42.996Z,8968.00
2019-05-29T04:56:43.014Z,8972.00
2019-05-29T04:57:43.032Z,8856.00
2019-05-29T04:58:43.049Z,8712.00
2019-05-29T04:59:43.068Z,8608.00
2019-05-29T05:00:58.159Z,8676.00
2019-05-29T05:01:43.105Z,9080.00
2019-05-29T05:02:43.122Z,9444.00
2019-05-29T05:03:43.143Z,9684.00
2019-05-29T05:04:43.164Z,9796.00
2019-05-29T05:05:43.176Z,9708.00
2019-05-29T05:06:43.193Z,9776.00
2019-05-29T05:07:43.220Z,9428.00
2019-05-29T05:08:43.286Z,9024.00
2019-05-29T05:09:43.303Z,8576.00
2019-05-29T05:10:43.308Z,8304.00
2019-05-29T05:11:43.312Z,8240.00
2019-05-29T05:12:43.390Z,8320.00
2019-05-29T05:13:43.367Z,8524.00
2019-05-29T05:14:43.371Z,8936.00
2019-05-29T05:15:43.377Z,9380.00
2019-05-29T05:16:43.384Z,9864.00
2019-05-29T05:17:43.396Z,10484.00
2019-05-29T05:18:43.413Z,11240.00
2019-05-29T05:19:43.430Z,11920.00
2019-05-29T05:20:43.451Z,12328.00
2019-05-29T05:21:43.466Z,12476.00
2019-05-29T05:22:43.492Z,12336.00
2019-05-29T05:23:43.506Z,12016.00
2019-05-29T05:24:44.123Z,11684.00
2019-05-29T05:25:43.541Z,11580.00
2019-05-29T05:26:43.560Z,11448.00
2019-05-29T05:27:43.577Z,11520.00
2019-05-29T05:28:45.810Z,11704.00
2019-05-29T05:29:43.613Z,12196.00
2019-05-29T05:30:43.630Z,12420.00
2019-05-29T05:31:43.655Z,12896.00
2019-05-29T05:32:43.670Z,13612.00
2019-05-29T05:33:43.687Z,14148.00
2019-05-29T05:34:43.707Z,14192.00
2019-05-29T05:35:43.727Z,14180.00
2019-05-29T05:36:43.751Z,14292.00
2019-05-29T05:37:43.763Z,14608.00
2019-05-29T05:38:43.781Z,14936.00
2019-05-29T05:39:43.799Z,15244.00
2019-05-29T05:40:43.822Z,15664.00
2019-05-29T05:41:43.837Z,16140.00
2019-05-29T05:42:43.855Z,16500.00
2019-05-29T05:43:43.876Z,16672.00
2019-05-29T05:44:43.894Z,16720.00
2019-05-29T05:45:43.911Z,16708.00
2019-05-29T05:46:43.930Z,16772.00
2019-05-29T05:47:56.314Z,16896.00
2019-05-29T05:48:43.969Z,16936.00
2019-05-29T05:49:43.988Z,17012.00
2019-05-29T05:50:44.006Z,17280.00
2019-05-29T05:51:44.777Z,17568.00
2019-05-29T05:52:44.046Z,17792.00
2019-05-29T05:53:44.063Z,18016.00
2019-05-29T05:54:44.081Z,18048.00
2019-05-29T05:55:44.101Z,17792.00
2019-05-29T05:56:44.118Z,17536.00
2019-05-29T05:57:44.140Z,17248.00
2019-05-29T05:58:44.157Z,16880.00
2019-05-29T05:59:44.180Z,16620.00
2019-05-29T06:00:44.200Z,16436.00
2019-05-29T06:01:44.220Z,16380.00
2019-05-29T06:02:44.235Z,16224.00
2019-05-29T06:03:44.256Z,16064.00
2019-05-29T06:04:44.275Z,15668.00
2019-05-29T06:05:44.295Z,15428.00
2019-05-29T06:06:44.316Z,14868.00
2019-05-29T06:07:44.331Z,13996.00
2019-05-29T06:08:44.353Z,13920.00
2019-05-29T06:09:44.375Z,14048.00
2019-05-29T06:10:44.392Z,13992.00
2019-05-29T06:11:44.412Z,14020.00
2019-05-29T06:12:44.432Z,17728.00
2019-05-29T06:13:44.450Z,17472.00
2019-05-29T06:14:44.471Z,18336.00
2019-05-29T06:15:44.488Z,21152.00
2019-05-29T06:16:44.520Z,28672.00
2019-05-29T06:18:00.833Z,28352.00
2019-05-29T06:18:44.550Z,34016.00
2019-05-29T06:19:44.570Z,44768.00
2019-05-29T06:20:44.601Z,32320.00
2019-05-29T06:21:44.607Z,28960.00
2019-05-29T06:22:44.625Z,24160.00
2019-05-29T06:23:44.652Z,28736.00
2019-05-29T06:24:44.676Z,26176.00
2019-05-29T06:25:44.687Z,35424.00
2019-05-29T06:26:44.708Z,30272.00
2019-05-29T06:27:44.728Z,23616.00
2019-05-29T06:28:44.748Z,24736.00
2019-05-29T06:29:44.768Z,28928.00
2019-05-29T06:30:45.057Z,24928.00
2019-05-29T06:31:44.810Z,26688.00
2019-05-29T06:32:44.827Z,29216.00
2019-05-29T06:33:44.850Z,24416.00
2019-05-29T06:34:44.871Z,36224.00
2019-05-29T06:35:44.893Z,48032.00
2019-05-29T06:36:48.042Z,51264.00
2019-05-29T06:37:44.932Z,50080.00
2019-05-29T06:38:44.953Z,57632.00
2019-05-29T06:39:44.974Z,56128.00
2019-05-29T06:40:44.997Z,57472.00
2019-05-29T06:41:45.016Z,54144.00
2019-05-29T06:42:45.039Z,57568.00
2019-05-29T06:43:45.061Z,49504.00
2019-05-29T06:44:47.714Z,13248.00
2019-05-29T06:45:45.186Z,34176.00
2019-05-29T06:46:45.482Z,45856.00
2019-05-29T06:47:45.201Z,41792.00
2019-05-29T06:48:58.961Z,37920.00
2019-05-29T06:49:46.286Z,37728.00
2019-05-29T06:50:45.260Z,37088.00
2019-05-29T06:51:45.245Z,39744.00
2019-05-29T06:52:45.260Z,43072.00
2019-05-29T06:53:45.282Z,42304.00
2019-05-29T06:54:45.305Z,41984.00
2019-05-29T06:55:45.326Z,41632.00
2019-05-29T06:56:45.349Z,42912.00
2019-05-29T06:57:45.374Z,48064.00
2019-05-29T06:58:45.423Z,56320.00
2019-05-29T06:59:45.417Z,59840.00
2019-05-29T07:00:46.776Z,61408.00
2019-05-29T07:01:45.466Z,67264.00
2019-05-29T07:02:46.773Z,52416.00
2019-05-29T07:03:45.509Z,57056.00
2019-05-29T07:04:46.422Z,67968.00
2019-05-29T07:05:50.898Z,63936.00
2019-05-29T07:06:46.755Z,57696.00
2019-05-29T07:07:46.563Z,20704.00
2019-05-29T07:08:48.387Z,12640.00
2019-05-29T07:09:45.650Z,11364.00
2019-05-29T07:10:45.676Z,12168.00
2019-05-29T07:11:45.705Z,44896.00
2019-05-29T07:12:46.493Z,54592.00
2019-05-29T07:13:48.370Z,54592.00
2019-05-29T07:14:46.586Z,52000.00
2019-05-29T07:15:47.127Z,51424.00
2019-05-29T07:16:55.627Z,51168.00
2019-05-29T07:17:46.687Z,52416.00
2019-05-29T07:19:23.341Z,54272.00
2019-05-29T07:19:58.155Z,54048.00
2019-05-29T07:20:46.975Z,55712.00
2019-05-29T07:21:47.097Z,61280.00
2019-05-29T07:22:47.018Z,62048.00
2019-05-29T07:23:47.009Z,62880.00
2019-05-29T07:24:46.936Z,63584.00
2019-05-29T07:25:47.305Z,63072.00
2019-05-29T07:26:47.173Z,62208.00
2019-05-29T07:27:47.006Z,64544.00
2019-05-29T07:29:02.036Z,65824.00
2019-05-29T07:29:47.337Z,62176.00
2019-05-29T07:30:53.701Z,60480.00
2019-05-29T07:31:47.259Z,33056.00
2019-05-29T07:32:51.980Z,20896.00
2019-05-29T07:33:47.288Z,20896.00
2019-05-29T07:34:56.706Z,24544.00
2019-05-29T07:35:46.283Z,68352.00
2019-05-29T07:36:48.049Z,63520.00
2019-05-29T07:37:46.332Z,68384.00
2019-05-29T07:38:57.774Z,49984.00
2019-05-29T07:39:46.383Z,75168.00
2019-05-29T07:40:48.220Z,57152.00
2019-05-29T07:41:46.438Z,23360.00
2019-05-29T07:42:53.675Z,18432.00
2019-05-29T07:43:46.490Z,21952.00
2019-05-29T07:44:46.513Z,16312.00
2019-05-29T07:45:46.537Z,69216.00
2019-05-29T07:46:47.182Z,73632.00
2019-05-29T07:47:46.787Z,73088.00
2019-05-29T07:48:49.591Z,61792.00
2019-05-29T07:49:48.363Z,74112.00
2019-05-29T07:50:46.666Z,17312.00
2019-05-29T07:51:46.892Z,15792.00
2019-05-29T07:52:47.356Z,16224.00
2019-05-29T07:53:46.746Z,22048.00
2019-05-29T07:54:47.885Z,50976.00
2019-05-29T07:55:46.831Z,74080.00
2019-05-29T07:56:46.821Z,72960.00
2019-05-29T07:57:47.073Z,74400.00
2019-05-29T07:58:56.825Z,73824.00
2019-05-29T07:59:46.897Z,72544.00
2019-05-29T08:01:06.935Z,70176.00
2019-05-29T08:01:47.228Z,26176.00
2019-05-29T08:02:47.542Z,22400.00
2019-05-29T08:03:47.494Z,25120.00
2019-05-29T08:04:47.213Z,77184.00
2019-05-29T08:05:51.088Z,76768.00
2019-05-29T08:06:51.091Z,76320.00
2019-05-29T08:07:47.593Z,71872.00
2019-05-29T08:08:47.444Z,73088.00
2019-05-29T08:09:47.857Z,75488.00
2019-05-29T08:10:47.607Z,73248.00
2019-05-29T08:11:47.693Z,80224.00
2019-05-29T08:12:53.226Z,83104.00
2019-05-29T08:13:47.743Z,86848.00
2019-05-29T08:14:47.904Z,65120.00
2019-05-29T08:15:57.624Z,30656.00
2019-05-29T08:16:48.061Z,40448.00
2019-05-29T08:17:48.198Z,34656.00
2019-05-29T08:18:49.691Z,69856.00
2019-05-29T08:20:02.692Z,87712.00
2019-05-29T08:20:48.170Z,46368.00
2019-05-29T08:21:48.407Z,35232.00
2019-05-29T08:22:48.424Z,24288.00
2019-05-29T08:23:48.491Z,24416.00
2019-05-29T08:24:48.090Z,24864.00
2019-05-29T08:25:47.741Z,23552.00
2019-05-29T08:26:48.815Z,25600.00
2019-05-29T08:27:48.766Z,85248.00
2019-05-29T08:28:48.799Z,85184.00
2019-05-29T08:29:48.768Z,74304.00
2019-05-29T08:30:52.602Z,85504.00
2019-05-29T08:31:48.845Z,52736.00
2019-05-29T08:32:49.099Z,89952.00
2019-05-29T08:33:48.889Z,88928.00
2019-05-29T08:34:48.983Z,90592.00
2019-05-29T08:35:55.696Z,36672.00
2019-05-29T08:37:00.846Z,26912.00
2019-05-29T08:37:49.025Z,22720.00
2019-05-29T08:38:49.066Z,22272.00
2019-05-29T08:39:47.987Z,19680.00
2019-05-29T08:40:48.013Z,17600.00
2019-05-29T08:42:49.317Z,14168.00
2019-05-29T08:43:48.457Z,14932.00
2019-05-29T08:44:48.120Z,81760.00
2019-05-29T08:45:48.150Z,72832.00
2019-05-29T08:47:05.120Z,84864.00
2019-05-29T08:47:48.202Z,82336.00
2019-05-29T08:48:48.281Z,85440.00
2019-05-29T08:49:50.860Z,92704.00
2019-05-29T08:50:48.279Z,96864.00
2019-05-29T08:51:48.310Z,102624.00
2019-05-29T08:52:48.342Z,101920.00
2019-05-29T08:53:48.789Z,87456.00
2019-05-29T08:54:48.393Z,26944.00
2019-05-29T08:55:48.714Z,34272.00
2019-05-29T08:56:48.500Z,21792.00
2019-05-29T08:57:48.543Z,20064.00
2019-05-29T08:58:48.519Z,19776.00
2019-05-29T08:59:48.531Z,22080.00
2019-05-29T09:00:51.708Z,20896.00
2019-05-29T09:01:50.379Z,20544.00
2019-05-29T09:02:49.170Z,22272.00
2019-05-29T09:03:48.919Z,22752.00
2019-05-29T09:04:49.865Z,57984.00
2019-05-29T09:06:04.984Z,48768.00
2019-05-29T09:06:49.210Z,17244.00
2019-05-29T09:07:49.958Z,16284.00
2019-05-29T09:08:49.929Z,21376.00
2019-05-29T09:09:49.127Z,81952.00
2019-05-29T09:10:49.508Z,96096.00
2019-05-29T09:11:50.095Z,96928.00
2019-05-29T09:12:56.851Z,95712.00
2019-05-29T09:13:48.903Z,93696.00
2019-05-29T09:14:49.034Z,95808.00
2019-05-29T09:15:49.010Z,94880.00
2019-05-29T09:16:49.119Z,97760.00
2019-05-29T09:17:49.069Z,98752.00
2019-05-29T09:18:49.081Z,95392.00
2019-05-29T09:19:49.070Z,63968.00
2019-05-29T09:21:02.759Z,22208.00
2019-05-29T09:21:49.124Z,91424.00
2019-05-29T09:22:49.154Z,81984.00
2019-05-29T09:23:49.182Z,99136.00
2019-05-29T09:24:49.212Z,29536.00
2019-05-29T09:25:49.237Z,19488.00
2019-05-29T09:26:49.270Z,31680.00
2019-05-29T09:27:49.299Z,93472.00
2019-05-29T09:28:49.347Z,94624.00
2019-05-29T09:29:49.354Z,93632.00
2019-05-29T09:30:49.386Z,92480.00
2019-05-29T09:31:49.420Z,93632.00
2019-05-29T09:32:52.193Z,93952.00
2019-05-29T09:33:49.476Z,98144.00
2019-05-29T09:34:49.505Z,100288.00
2019-05-29T09:35:49.536Z,102272.00
2019-05-29T09:36:49.613Z,101792.00
2019-05-29T09:37:49.594Z,110592.00
2019-05-29T09:38:49.636Z,29184.00
2019-05-29T09:39:49.658Z,110208.00
2019-05-29T09:40:52.630Z,106464.00
2019-05-29T09:41:49.721Z,91104.00
2019-05-29T09:42:49.754Z,20512.00
2019-05-29T09:43:59.058Z,21824.00
2019-05-29T09:44:49.819Z,41888.00
2019-05-29T09:45:49.845Z,25280.00
2019-05-29T09:46:49.876Z,100864.00
2019-05-29T09:47:49.909Z,98688.00
2019-05-29T09:48:50.350Z,90400.00
2019-05-29T09:49:49.967Z,97088.00
2019-05-29T09:50:50.823Z,97888.00
2019-05-29T09:51:50.030Z,100416.00
2019-05-29T09:52:50.065Z,22880.00
2019-05-29T09:53:50.111Z,26432.00
2019-05-29T09:54:50.127Z,101408.00
2019-05-29T09:55:50.162Z,102176.00
2019-05-29T09:56:50.188Z,101632.00
2019-05-29T09:57:50.220Z,99136.00
2019-05-29T09:58:50.249Z,99616.00
2019-05-29T09:59:50.283Z,100992.00
2019-05-29T10:01:09.816Z,99104.00
2019-05-29T10:01:50.348Z,100128.00
2019-05-29T10:02:50.379Z,100704.00
2019-05-29T10:03:50.413Z,99456.00
2019-05-29T10:04:50.447Z,100096.00
2019-05-29T10:05:50.479Z,24288.00
2019-05-29T10:06:50.515Z,104512.00
2019-05-29T10:07:50.549Z,102912.00
2019-05-29T10:08:50.582Z,102432.00
2019-05-29T10:09:50.615Z,101856.00
2019-05-29T10:10:50.651Z,102464.00
2019-05-29T10:11:50.682Z,102208.00
2019-05-29T10:12:50.717Z,103424.00
2019-05-29T10:13:50.750Z,105696.00
2019-05-29T10:14:51.388Z,106752.00
2019-05-29T10:15:50.822Z,47776.00
2019-05-29T10:16:50.925Z,21280.00
2019-05-29T10:17:50.933Z,17920.00
2019-05-29T10:18:50.983Z,16264.00
2019-05-29T10:19:50.999Z,14276.00
2019-05-29T10:20:51.000Z,14356.00
2019-05-29T10:21:51.033Z,14564.00
2019-05-29T10:22:51.059Z,16056.00
2019-05-29T10:23:51.089Z,17536.00
2019-05-29T10:24:51.122Z,99360.00
2019-05-29T10:25:51.151Z,102208.00
2019-05-29T10:26:51.191Z,102080.00
2019-05-29T10:27:51.216Z,100288.00
2019-05-29T10:29:04.404Z,99040.00
2019-05-29T10:29:52.840Z,98048.00
2019-05-29T10:30:52.788Z,93824.00
2019-05-29T10:31:53.331Z,94400.00
2019-05-29T10:32:52.687Z,95392.00
2019-05-29T10:33:52.324Z,96704.00
2019-05-29T10:34:52.574Z,97792.00
2019-05-29T10:35:53.870Z,75968.00
2019-05-29T10:36:53.563Z,100896.00
2019-05-29T10:37:52.851Z,36448.00
2019-05-29T10:38:52.604Z,97024.00
2019-05-29T10:39:52.895Z,102528.00
2019-05-29T10:41:04.618Z,101632.00
2019-05-29T10:41:52.963Z,103872.00
2019-05-29T10:42:51.786Z,108064.00
2019-05-29T10:43:51.737Z,109280.00
2019-05-29T10:44:51.770Z,112032.00
2019-05-29T10:45:52.136Z,32960.00
2019-05-29T10:46:52.512Z,30080.00
2019-05-29T10:47:52.382Z,16336.00
2019-05-29T10:48:54.210Z,13572.00
2019-05-29T10:49:51.941Z,15636.00
2019-05-29T10:50:53.588Z,36320.00
2019-05-29T10:52:07.198Z,19936.00
2019-05-29T10:52:52.189Z,18720.00
2019-05-29T10:53:53.157Z,78624.00
2019-05-29T10:54:52.414Z,94816.00
2019-05-29T10:55:52.684Z,96992.00
2019-05-29T10:56:52.998Z,94912.00
2019-05-29T10:57:53.134Z,94496.00
2019-05-29T10:58:56.408Z,95712.00
2019-05-29T10:59:52.894Z,99584.00
2019-05-29T11:00:53.326Z,100000.00
2019-05-29T11:01:53.711Z,100288.00
2019-05-29T11:02:53.465Z,104352.00
2019-05-29T11:03:53.818Z,52512.00
2019-05-29T11:04:56.387Z,102176.00
2019-05-29T11:05:53.674Z,95232.00
2019-05-29T11:06:52.746Z,19520.00
2019-05-29T11:07:53.812Z,20832.00
2019-05-29T11:08:52.575Z,69600.00
2019-05-29T11:09:52.600Z,97568.00
2019-05-29T11:10:52.634Z,95424.00
2019-05-29T11:11:53.241Z,93696.00
2019-05-29T11:12:52.762Z,90880.00
2019-05-29T11:13:52.826Z,91072.00
2019-05-29T11:14:52.941Z,92608.00
2019-05-29T11:15:52.881Z,95168.00
2019-05-29T11:16:53.429Z,96608.00
2019-05-29T11:17:53.259Z,94400.00
2019-05-29T11:18:53.374Z,94336.00
2019-05-29T11:19:53.564Z,96768.00
2019-05-29T11:20:53.478Z,96768.00
2019-05-29T11:21:54.274Z,94432.00
2019-05-29T11:22:53.644Z,95840.00
2019-05-29T11:23:53.868Z,97152.00
2019-05-29T11:24:53.993Z,72896.00
2019-05-29T11:25:53.995Z,27584.00
2019-05-29T11:26:54.582Z,19648.00
2019-05-29T11:27:53.631Z,27040.00
2019-05-29T11:28:54.341Z,32448.00
2019-05-29T11:29:53.774Z,100512.00
2019-05-29T11:30:53.792Z,41312.00
2019-05-29T11:31:53.548Z,72192.00
2019-05-29T11:32:55.614Z,30976.00
2019-05-29T11:33:53.430Z,16976.00
2019-05-29T11:34:53.864Z,18880.00
2019-05-29T11:36:00.882Z,18080.00
2019-05-29T11:36:54.237Z,21408.00
2019-05-29T11:37:54.637Z,106048.00
2019-05-29T11:38:54.583Z,103264.00
2019-05-29T11:39:54.800Z,103264.00
2019-05-29T11:41:20.255Z,103232.00
2019-05-29T11:41:54.765Z,68544.00
2019-05-29T11:42:54.703Z,72384.00
2019-05-29T11:43:54.868Z,20384.00
2019-05-29T11:44:55.114Z,24256.00
2019-05-29T11:45:55.111Z,23328.00
2019-05-29T11:46:54.222Z,50336.00
2019-05-29T11:47:55.146Z,104928.00
2019-05-29T11:48:55.113Z,47488.00
2019-05-29T11:49:55.041Z,87488.00
2019-05-29T11:50:54.138Z,27232.00
2019-05-29T11:52:04.790Z,16760.00
2019-05-29T11:52:54.433Z,78272.00
2019-05-29T11:53:55.329Z,19872.00
2019-05-29T11:54:58.903Z,98784.00
2019-05-29T11:55:55.684Z,93824.00
2019-05-29T11:56:55.323Z,94912.00
2019-05-29T11:57:54.214Z,96000.00
2019-05-29T11:58:54.778Z,62496.00
2019-05-29T11:59:54.275Z,97088.00
2019-05-29T12:00:55.046Z,86176.00
2019-05-29T12:01:55.450Z,79808.00
2019-05-29T12:02:55.761Z,97568.00
2019-05-29T12:04:24.142Z,98912.00
2019-05-29T12:04:55.160Z,98240.00
2019-05-29T12:05:55.324Z,100544.00
2019-05-29T12:06:55.344Z,104032.00
2019-05-29T12:07:55.495Z,102208.00
2019-05-29T12:08:55.633Z,96992.00